Terminal Aerodrome Forecast
Issued by NWS

Home | Current Version | Previous Version | Text Only | Print | Product List | Glossary On
Versions: 1 2 3 4 5 6 7 8 9 10 11 12 13 14 15 16 17 18 19 20 21 22 23 24 25 26 27 28 29 30 31
000
FTUS45 KGJT 042343
TAFASE
TAF
KASE 042343Z 0500/0524 23006KT P6SM VCTS FEW080CB OVC100
      TEMPO 0500/0502 VRB10G20KT -TSRA BKN080CB
     FM050300 17008KT P6SM BKN090
     FM050700 20006KT P6SM BKN150
     FM051000 21005KT P6SM VCTS SCT070CB BKN090
      TEMPO 0512/0516 VRB10G20KT -TSRA BKN070CB
     FM051600 34006KT P6SM VCTS SCT050CB OVC070=

USA.gov is the U.S. government's official web portal to all federal, state and local government web resources and services.